Terminal Aerodrome Forecast
Issued by NWS

Home | Current Version | Previous Version | Text Only | Print | Product List | Glossary On
Versions: 1 2 3 4 5 6 7 8 9 10 11 12 13 14 15 16 17 18
000
FTUS46 KSEW 251100
TAFOLM
TAF
KOLM 251138Z 2512/2612 VRB03KT 4SM BR OVC002
      TEMPO 2514/2518 1SM BR
     FM252000 VRB03KT 4SM BR BKN004 BKN200
     FM252200 VRB03KT P6SM BKN200
     FM260700 00000KT 1/2SM FG VV001=

USA.gov is the U.S. government's official web portal to all federal, state and local government web resources and services.